createdAt,value
2023-10-06T00:00:56.040Z,97323.03
2023-10-06T00:05:13.176Z,97324.59
2023-10-06T00:09:30.733Z,97324.34
2023-10-06T00:13:54.127Z,97323.63
2023-10-06T00:18:11.243Z,97319.66
2023-10-06T00:22:28.473Z,97310.75
2023-10-06T00:26:44.832Z,97315.94
2023-10-06T00:30:59.965Z,97314.84
2023-10-06T00:35:17.709Z,97316.81
2023-10-06T00:39:32.710Z,97306.69
2023-10-06T00:43:46.069Z,97313.78
2023-10-06T00:47:58.774Z,97303.94
2023-10-06T00:52:14.064Z,97315.31
2023-10-06T00:56:30.692Z,97305.19
2023-10-06T01:00:43.387Z,97305.69
2023-10-06T01:04:55.981Z,97310.06
2023-10-06T01:09:14.180Z,97309.69
2023-10-06T01:13:29.729Z,97301.81
2023-10-06T01:17:42.691Z,97305.72
2023-10-06T01:21:57.400Z,97305.38
2023-10-06T01:26:10.169Z,97310.50
2023-10-06T01:30:23.094Z,97300.22
2023-10-06T01:34:40.519Z,97304.66
2023-10-06T01:38:54.187Z,97291.53
2023-10-06T01:43:11.722Z,97302.41
2023-10-06T01:47:24.284Z,97303.22
2023-10-06T01:51:37.777Z,97301.75
2023-10-06T01:55:54.651Z,97296.25
2023-10-06T02:00:17.045Z,97300.53
2023-10-06T02:04:36.038Z,97296.28
2023-10-06T02:08:57.263Z,97296.34
2023-10-06T02:13:09.742Z,97296.44
2023-10-06T02:17:22.327Z,97283.00
2023-10-06T02:21:52.965Z,97278.09
2023-10-06T02:26:11.081Z,97280.97
2023-10-06T02:30:35.735Z,97285.31
2023-10-06T02:34:48.284Z,97288.03
2023-10-06T02:39:07.420Z,97290.34
2023-10-06T02:43:22.442Z,97294.34
2023-10-06T02:47:35.023Z,97281.84
2023-10-06T02:51:50.543Z,97287.34
2023-10-06T02:56:10.631Z,97286.59
2023-10-06T03:00:23.316Z,97280.34
2023-10-06T03:04:38.214Z,97277.25
2023-10-06T03:08:50.688Z,97285.78
2023-10-06T03:13:05.447Z,97283.50
2023-10-06T03:17:21.694Z,97274.03
2023-10-06T03:21:34.708Z,97275.66
2023-10-06T03:25:51.277Z,97272.50
2023-10-06T03:30:13.551Z,97267.88
2023-10-06T03:34:26.142Z,97277.31
2023-10-06T03:38:39.568Z,97270.38
2023-10-06T03:42:54.578Z,97274.16
2023-10-06T03:47:10.160Z,97271.47
2023-10-06T03:51:23.159Z,97291.50
2023-10-06T03:55:47.634Z,97289.13
2023-10-06T04:00:00.277Z,97290.75
2023-10-06T04:04:17.239Z,97286.81
2023-10-06T04:08:29.984Z,97289.91
2023-10-06T04:12:42.481Z,97291.16
2023-10-06T04:16:55.378Z,97282.59
2023-10-06T04:21:13.140Z,97288.44
2023-10-06T04:25:25.659Z,97292.38
2023-10-06T04:29:40.193Z,97290.72
2023-10-06T04:33:52.838Z,97283.41
2023-10-06T04:38:08.015Z,97275.97
2023-10-06T04:42:21.700Z,97267.81
2023-10-06T04:46:37.044Z,97272.06
2023-10-06T04:50:53.667Z,97275.91
2023-10-06T04:55:12.214Z,97271.38
2023-10-06T04:59:24.805Z,97263.41
2023-10-06T05:03:46.701Z,97249.28
2023-10-06T05:07:59.721Z,97255.94
2023-10-06T05:12:13.115Z,97252.28
2023-10-06T05:16:29.355Z,97263.31
2023-10-06T05:20:41.936Z,97266.09
2023-10-06T05:24:54.675Z,97256.25
2023-10-06T05:29:07.564Z,97267.63
2023-10-06T05:33:20.174Z,97267.50
2023-10-06T05:37:34.172Z,97275.66
2023-10-06T05:41:46.982Z,97267.31
2023-10-06T05:45:59.508Z,97269.94
2023-10-06T05:50:13.047Z,97281.56
2023-10-06T05:54:25.513Z,97279.78
2023-10-06T05:58:42.812Z,97276.97
2023-10-06T06:03:00.168Z,97276.41
2023-10-06T06:07:12.946Z,97289.22
2023-10-06T06:11:26.673Z,97289.50
2023-10-06T06:15:41.252Z,97305.50
2023-10-06T06:20:04.770Z,97298.75
2023-10-06T06:24:25.076Z,97300.84
2023-10-06T06:28:38.424Z,97294.69
2023-10-06T06:32:52.374Z,97302.94
2023-10-06T06:37:04.928Z,97301.53
2023-10-06T06:41:17.803Z,97311.75
2023-10-06T06:45:38.190Z,97315.13
2023-10-06T06:49:51.376Z,97320.31
2023-10-06T06:54:04.100Z,97322.31
2023-10-06T06:58:18.529Z,97324.47
2023-10-06T07:02:31.130Z,97332.22
2023-10-06T07:06:44.790Z,97341.84
2023-10-06T07:10:58.236Z,97347.25
2023-10-06T07:15:19.478Z,97348.00
2023-10-06T07:19:31.972Z,97335.78
2023-10-06T07:23:44.667Z,97336.75
2023-10-06T07:28:00.555Z,97335.81
2023-10-06T07:32:15.848Z,97338.69
2023-10-06T07:36:31.070Z,97319.38
2023-10-06T07:40:46.836Z,97322.09
2023-10-06T07:44:59.829Z,97326.84
2023-10-06T07:49:12.614Z,97330.19
2023-10-06T07:53:25.834Z,97324.78
2023-10-06T07:57:43.184Z,97321.38
2023-10-06T08:01:55.796Z,97317.28
2023-10-06T08:06:08.568Z,97320.06
2023-10-06T08:10:21.609Z,97316.16
2023-10-06T08:14:34.332Z,97312.00
2023-10-06T08:18:49.945Z,97309.63
2023-10-06T08:23:02.580Z,97318.91
2023-10-06T08:27:15.144Z,97307.25
2023-10-06T08:31:28.500Z,97293.97
2023-10-06T08:35:42.277Z,97280.19
2023-10-06T08:39:57.030Z,97296.34
2023-10-06T08:44:11.117Z,97293.09
2023-10-06T08:48:29.481Z,97277.78
2023-10-06T08:52:43.147Z,97277.34
2023-10-06T08:56:55.667Z,97273.47
2023-10-06T09:01:08.866Z,97279.09
2023-10-06T09:05:21.854Z,97275.50
2023-10-06T09:09:35.024Z,97281.72
2023-10-06T09:13:48.109Z,97277.41
2023-10-06T09:18:01.402Z,97272.41
2023-10-06T09:22:13.925Z,97273.44
2023-10-06T09:26:33.651Z,97264.06
2023-10-06T09:31:04.323Z,97253.97
2023-10-06T09:35:21.458Z,97261.00
2023-10-06T09:39:36.751Z,97254.59
2023-10-06T09:43:51.025Z,97256.97
2023-10-06T09:48:10.370Z,97258.66
2023-10-06T09:52:26.113Z,97265.22
2023-10-06T09:56:43.773Z,97261.44
2023-10-06T10:00:57.522Z,97260.31
2023-10-06T10:05:12.914Z,97260.06
2023-10-06T10:09:26.953Z,97252.56
2023-10-06T10:13:47.530Z,97253.72
2023-10-06T10:18:11.546Z,97248.63
2023-10-06T10:22:28.270Z,97255.25
2023-10-06T10:26:41.843Z,97241.28
2023-10-06T10:31:03.291Z,97244.81
2023-10-06T10:35:18.739Z,97246.66
2023-10-06T10:39:51.612Z,97229.22
2023-10-06T10:44:24.706Z,97222.34
2023-10-06T10:48:39.221Z,97208.97
2023-10-06T10:52:55.687Z,97199.84
2023-10-06T10:57:11.509Z,97199.84
2023-10-06T11:01:40.531Z,97189.94
2023-10-06T11:05:58.863Z,97199.09
2023-10-06T11:10:14.859Z,97200.00
2023-10-06T11:14:29.897Z,97199.94
2023-10-06T11:18:43.152Z,97190.25
2023-10-06T11:23:01.765Z,97182.31
2023-10-06T11:27:23.603Z,97154.47
2023-10-06T11:31:36.482Z,97161.00
2023-10-06T11:35:49.086Z,97159.38
2023-10-06T11:40:01.777Z,97153.34
2023-10-06T11:44:14.292Z,97151.34
2023-10-06T11:48:33.089Z,97143.03
2023-10-06T11:52:46.127Z,97136.66
2023-10-06T11:56:59.098Z,97133.13
2023-10-06T12:01:30.529Z,97128.78
2023-10-06T12:05:57.268Z,97122.94
2023-10-06T12:10:10.780Z,97123.13
2023-10-06T12:14:23.400Z,97113.56
2023-10-06T12:18:37.375Z,97106.13
2023-10-06T12:22:49.829Z,97114.56
2023-10-06T12:27:02.368Z,97094.41
2023-10-06T12:31:15.108Z,97104.94
2023-10-06T12:35:30.919Z,97091.72
2023-10-06T12:39:47.171Z,97083.88
2023-10-06T12:44:06.803Z,97092.41
2023-10-06T12:48:19.523Z,97080.94
2023-10-06T12:52:33.094Z,97079.81
2023-10-06T12:56:46.771Z,97073.50
2023-10-06T13:00:59.304Z,97066.50
2023-10-06T13:05:24.446Z,97076.22
2023-10-06T13:09:38.516Z,97077.66
2023-10-06T13:13:51.201Z,97073.56
2023-10-06T13:18:03.835Z,97068.72
2023-10-06T13:22:16.352Z,97071.56
2023-10-06T13:26:40.537Z,97062.19
2023-10-06T13:30:56.043Z,97062.50
2023-10-06T13:35:13.793Z,97044.72
2023-10-06T13:39:26.932Z,97057.00
2023-10-06T13:43:39.524Z,97053.72
2023-10-06T13:47:56.992Z,97040.38
2023-10-06T13:52:09.613Z,97039.22
2023-10-06T13:56:22.514Z,97033.81
2023-10-06T14:00:37.366Z,97035.78
2023-10-06T14:04:49.856Z,97042.94
2023-10-06T14:09:02.398Z,97037.63
2023-10-06T14:13:18.091Z,97039.25
2023-10-06T14:17:34.366Z,97036.81
2023-10-06T14:21:47.297Z,97035.78
2023-10-06T14:26:02.576Z,97031.38
2023-10-06T14:30:16.351Z,97030.59
2023-10-06T14:34:47.528Z,97029.91
2023-10-06T14:39:18.878Z,97033.72
2023-10-06T14:43:49.760Z,97028.00
2023-10-06T14:48:05.350Z,97022.53
2023-10-06T14:52:18.369Z,97019.06
2023-10-06T14:56:31.653Z,97033.91
2023-10-06T15:00:44.278Z,97024.16
2023-10-06T15:04:56.782Z,97017.50
2023-10-06T15:09:19.689Z,97008.31
2023-10-06T15:13:38.361Z,97000.69
2023-10-06T15:18:09.173Z,97006.28
2023-10-06T15:22:24.255Z,97000.16
2023-10-06T15:26:36.865Z,97002.94
2023-10-06T15:30:49.388Z,97001.53
2023-10-06T15:35:02.637Z,96997.66
2023-10-06T15:39:25.614Z,96987.22
2023-10-06T15:43:43.842Z,96985.09
2023-10-06T15:47:57.987Z,96980.94
2023-10-06T15:52:10.556Z,96975.00
2023-10-06T15:56:25.347Z,96972.00
2023-10-06T16:00:41.914Z,96979.06
2023-10-06T16:04:54.462Z,96976.66
2023-10-06T16:09:18.166Z,96972.78
2023-10-06T16:13:33.250Z,96978.97
2023-10-06T16:17:46.208Z,96979.59
2023-10-06T16:21:59.322Z,96984.38
2023-10-06T16:26:13.639Z,96994.22
2023-10-06T16:30:26.235Z,96990.94
2023-10-06T16:34:40.074Z,96999.84
2023-10-06T16:38:53.241Z,96984.50
2023-10-06T16:43:11.193Z,96993.78
2023-10-06T16:47:24.049Z,97000.53
2023-10-06T16:51:36.802Z,96995.66
2023-10-06T16:55:59.858Z,97004.34
2023-10-06T17:00:14.574Z,97018.25
2023-10-06T17:04:27.988Z,97019.19
2023-10-06T17:08:41.854Z,97020.38
2023-10-06T17:12:54.566Z,97029.63
2023-10-06T17:17:07.167Z,97035.63
2023-10-06T17:21:19.671Z,97031.44
2023-10-06T17:25:33.483Z,97036.53
2023-10-06T17:29:47.467Z,97031.09
2023-10-06T17:34:00.530Z,97039.50
2023-10-06T17:38:13.031Z,97038.69
2023-10-06T17:42:25.569Z,97039.25
2023-10-06T17:46:39.653Z,97037.00
2023-10-06T17:50:52.628Z,97036.97
2023-10-06T17:55:07.226Z,97035.88
2023-10-06T17:59:20.124Z,97043.69
2023-10-06T18:03:32.903Z,97053.69
2023-10-06T18:07:46.656Z,97048.75
2023-10-06T18:12:14.943Z,97043.47
2023-10-06T18:16:31.741Z,97040.06
2023-10-06T18:20:44.844Z,97038.00
2023-10-06T18:24:57.401Z,97036.78
2023-10-06T18:29:10.092Z,97038.59
2023-10-06T18:33:22.865Z,97044.13
2023-10-06T18:37:35.388Z,97047.78
2023-10-06T18:41:49.142Z,97064.00
2023-10-06T18:46:01.873Z,97059.41
2023-10-06T18:50:20.624Z,97058.06
2023-10-06T18:54:33.196Z,97061.06
2023-10-06T18:58:48.017Z,97063.84
2023-10-06T19:03:00.578Z,97062.47
2023-10-06T19:07:14.819Z,97059.72
2023-10-06T19:11:27.378Z,97064.00
2023-10-06T19:15:43.850Z,97058.06
2023-10-06T19:19:57.761Z,97068.88
2023-10-06T19:24:11.226Z,97048.66
2023-10-06T19:28:26.875Z,97059.50
2023-10-06T19:32:41.289Z,97058.53
2023-10-06T19:36:53.809Z,97066.09
2023-10-06T19:41:16.406Z,97056.38
2023-10-06T19:45:29.111Z,97057.28
2023-10-06T19:49:41.756Z,97060.72
2023-10-06T19:53:54.444Z,97067.78
2023-10-06T19:58:09.534Z,97063.16
2023-10-06T20:02:22.110Z,97074.44
2023-10-06T20:06:40.068Z,97064.50
2023-10-06T20:10:57.524Z,97053.78
2023-10-06T20:15:12.995Z,97063.06
2023-10-06T20:19:28.345Z,97061.34
2023-10-06T20:23:42.067Z,97061.47
2023-10-06T20:27:55.049Z,97058.47
2023-10-06T20:32:09.506Z,97051.28
2023-10-06T20:36:22.580Z,97053.63
2023-10-06T20:40:36.233Z,97052.38
2023-10-06T20:44:48.812Z,97069.72
2023-10-06T20:49:02.634Z,97062.06
2023-10-06T20:53:15.128Z,97059.94
2023-10-06T20:57:29.381Z,97070.31
2023-10-06T21:01:43.934Z,97068.88
2023-10-06T21:05:58.745Z,97071.78
2023-10-06T21:10:13.320Z,97069.69
2023-10-06T21:14:25.873Z,97067.13
2023-10-06T21:18:39.125Z,97067.31
2023-10-06T21:22:52.013Z,97072.31
2023-10-06T21:27:05.688Z,97075.22
2023-10-06T21:31:18.298Z,97078.66
2023-10-06T21:35:32.538Z,97084.13
2023-10-06T21:39:45.585Z,97079.31
2023-10-06T21:43:58.157Z,97087.59
2023-10-06T21:48:10.736Z,97084.16
2023-10-06T21:52:24.050Z,97090.81
2023-10-06T21:56:36.916Z,97090.34
2023-10-06T22:00:55.976Z,97085.53
2023-10-06T22:05:09.591Z,97084.00
2023-10-06T22:09:24.848Z,97083.06
2023-10-06T22:13:37.457Z,97090.16
2023-10-06T22:17:50.041Z,97087.06
2023-10-06T22:22:03.367Z,97073.88
2023-10-06T22:26:16.371Z,97085.22
2023-10-06T22:30:29.276Z,97060.25
2023-10-06T22:34:42.563Z,97072.38
2023-10-06T22:38:56.302Z,97077.66
2023-10-06T22:43:09.629Z,97076.19
2023-10-06T22:47:22.131Z,97073.78
2023-10-06T22:51:34.607Z,97069.56
2023-10-06T22:55:47.249Z,97063.72
2023-10-06T23:00:00.991Z,97066.22
2023-10-06T23:04:13.604Z,97066.03
2023-10-06T23:08:26.589Z,97070.00
2023-10-06T23:12:39.932Z,97065.41
2023-10-06T23:16:52.717Z,97066.78
2023-10-06T23:21:07.758Z,97062.56
2023-10-06T23:25:24.825Z,97066.66
2023-10-06T23:29:37.748Z,97063.63
2023-10-06T23:33:50.644Z,97066.03
2023-10-06T23:38:08.403Z,97065.38
2023-10-06T23:42:25.892Z,97055.06
2023-10-06T23:46:40.417Z,97068.28
2023-10-06T23:51:00.641Z,97065.50
2023-10-06T23:55:16.540Z,97050.31
2023-10-06T23:59:30.273Z,97069.44
